createdAt,value
2017-08-07T00:00:06.656Z,0
2017-08-07T00:00:47.107Z,0
2017-08-07T00:01:27.559Z,0
2017-08-07T00:02:08.012Z,0
2017-08-07T00:02:48.466Z,0
2017-08-07T00:03:28.918Z,0
2017-08-07T00:04:09.377Z,0
2017-08-07T00:04:49.836Z,0
2017-08-07T00:05:30.281Z,0
2017-08-07T00:06:10.744Z,0
2017-08-07T00:06:51.199Z,0
2017-08-07T00:07:31.659Z,0
2017-08-07T00:08:12.114Z,0
2017-08-07T00:08:52.563Z,0
2017-08-07T00:09:33.026Z,0
2017-08-07T00:10:13.484Z,0
2017-08-07T00:10:53.946Z,0
2017-08-07T00:11:34.393Z,0
2017-08-07T00:12:14.851Z,0
2017-08-07T00:12:55.304Z,0
2017-08-07T00:13:35.758Z,0
2017-08-07T00:14:16.211Z,0
2017-08-07T00:14:56.768Z,0
2017-08-07T00:15:37.196Z,0
2017-08-07T00:16:17.653Z,0
2017-08-07T00:16:58.111Z,0
2017-08-07T00:17:38.565Z,0
2017-08-07T00:18:19.018Z,0
2017-08-07T00:18:59.473Z,0
2017-08-07T00:19:39.930Z,0
2017-08-07T00:20:20.384Z,0
2017-08-07T00:21:00.846Z,0
2017-08-07T00:21:41.304Z,0
2017-08-07T00:22:21.758Z,0
2017-08-07T00:23:02.215Z,0
2017-08-07T00:23:42.669Z,0
2017-08-07T00:24:23.118Z,0
2017-08-07T00:25:03.572Z,0
2017-08-07T00:25:44.019Z,0
2017-08-07T00:26:24.480Z,0
2017-08-07T00:27:04.934Z,0
2017-08-07T00:27:45.395Z,0
2017-08-07T00:28:25.847Z,0
2017-08-07T00:29:06.320Z,0
2017-08-07T00:29:46.766Z,0
2017-08-07T00:30:27.223Z,0
2017-08-07T00:31:07.673Z,0
2017-08-07T00:31:48.126Z,0
2017-08-07T00:32:28.589Z,0
2017-08-07T00:33:09.040Z,0
2017-08-07T00:33:49.498Z,0
2017-08-07T00:34:29.951Z,0
2017-08-07T00:35:10.399Z,0
2017-08-07T00:35:50.843Z,0
2017-08-07T00:36:31.303Z,0
2017-08-07T00:37:11.756Z,0
2017-08-07T00:37:52.214Z,0
2017-08-07T00:38:32.668Z,0
2017-08-07T00:39:13.125Z,0
2017-08-07T00:39:53.578Z,0
2017-08-07T00:40:34.036Z,0
2017-08-07T00:41:14.496Z,0
2017-08-07T00:41:54.949Z,0
2017-08-07T00:42:35.410Z,0
2017-08-07T00:43:15.866Z,0
2017-08-07T00:43:56.322Z,0
2017-08-07T00:44:36.778Z,0
2017-08-07T00:45:17.236Z,0
2017-08-07T00:45:57.691Z,0
2017-08-07T00:46:38.144Z,0
2017-08-07T00:47:18.613Z,0
2017-08-07T00:47:59.066Z,0
2017-08-07T00:48:39.529Z,0
2017-08-07T00:49:19.989Z,0
2017-08-07T00:50:00.442Z,0
2017-08-07T00:50:41.505Z,0
2017-08-07T00:51:21.956Z,0
2017-08-07T00:52:02.411Z,0
2017-08-07T00:52:42.874Z,0
2017-08-07T00:53:23.322Z,0
2017-08-07T00:54:03.770Z,0
2017-08-07T00:54:44.220Z,0
2017-08-07T00:55:24.674Z,0
2017-08-07T00:56:05.131Z,0
2017-08-07T00:56:45.587Z,0
2017-08-07T00:57:26.046Z,0
2017-08-07T00:58:06.500Z,0
2017-08-07T00:58:46.966Z,0
2017-08-07T00:59:27.418Z,0
2017-08-07T01:00:07.871Z,0
2017-08-07T01:00:48.329Z,0
2017-08-07T01:01:28.784Z,0
2017-08-07T01:02:09.239Z,0
2017-08-07T01:02:49.698Z,0
2017-08-07T01:03:30.151Z,0
2017-08-07T01:04:10.601Z,0
2017-08-07T01:04:51.055Z,0
2017-08-07T01:05:31.509Z,0
2017-08-07T01:06:11.970Z,0
2017-08-07T01:06:52.424Z,0
2017-08-07T01:07:32.879Z,0
2017-08-07T01:08:13.346Z,0
2017-08-07T01:08:53.794Z,0
2017-08-07T01:09:34.244Z,0
2017-08-07T01:10:14.700Z,0
2017-08-07T01:10:55.158Z,0
2017-08-07T01:11:35.617Z,0
2017-08-07T01:12:16.079Z,0
2017-08-07T01:12:56.526Z,0
2017-08-07T01:13:36.975Z,0
2017-08-07T01:14:17.434Z,0
2017-08-07T01:14:57.909Z,0
2017-08-07T01:15:38.371Z,0
2017-08-07T01:16:18.837Z,0
2017-08-07T01:16:59.316Z,0
2017-08-07T01:17:39.777Z,0
2017-08-07T01:18:20.229Z,0
2017-08-07T01:19:00.683Z,0
2017-08-07T01:19:41.142Z,0
2017-08-07T01:20:21.601Z,0
2017-08-07T01:21:02.058Z,0
2017-08-07T01:21:42.522Z,0
2017-08-07T01:22:22.977Z,0
2017-08-07T01:23:03.439Z,0
2017-08-07T01:23:44.404Z,0
2017-08-07T01:24:24.857Z,0
2017-08-07T01:25:05.311Z,0
2017-08-07T01:25:45.766Z,0
2017-08-07T01:26:26.220Z,0
2017-08-07T01:27:06.679Z,0
2017-08-07T01:27:47.142Z,0
2017-08-07T01:28:27.595Z,0
2017-08-07T01:29:08.042Z,0
2017-08-07T01:29:48.499Z,0
2017-08-07T01:30:28.963Z,0
2017-08-07T01:31:09.420Z,0
2017-08-07T01:31:49.877Z,0
2017-08-07T01:32:30.332Z,0
2017-08-07T01:33:10.783Z,0
2017-08-07T01:33:51.244Z,0
2017-08-07T01:34:31.702Z,0
2017-08-07T01:35:12.163Z,0
2017-08-07T01:35:52.639Z,0
2017-08-07T01:38:25.698Z,0
2017-08-07T01:39:06.165Z,0
2017-08-07T01:39:46.602Z,0
2017-08-07T01:40:27.060Z,0
2017-08-07T01:41:07.518Z,0
2017-08-07T01:41:47.977Z,0
2017-08-07T01:42:28.435Z,0
2017-08-07T01:43:08.899Z,0
2017-08-07T01:43:49.354Z,0
2017-08-07T01:44:29.811Z,0
2017-08-07T01:45:10.268Z,0
2017-08-07T01:45:50.717Z,0
2017-08-07T01:46:31.168Z,0
2017-08-07T01:47:11.616Z,0
2017-08-07T01:47:52.069Z,0
2017-08-07T01:48:32.528Z,0
2017-08-07T01:49:12.971Z,0
2017-08-07T01:49:53.436Z,0
2017-08-07T01:50:33.887Z,0
2017-08-07T01:51:14.343Z,0
2017-08-07T01:51:54.800Z,0
2017-08-07T01:52:35.255Z,0
2017-08-07T01:53:15.718Z,0
2017-08-07T01:53:56.162Z,0
2017-08-07T01:54:36.619Z,0
2017-08-07T01:55:17.106Z,0
2017-08-07T01:55:57.561Z,0
2017-08-07T01:56:38.021Z,0
2017-08-07T01:57:18.482Z,0
2017-08-07T01:57:58.946Z,0
2017-08-07T01:58:39.404Z,0
2017-08-07T01:59:19.862Z,0
2017-08-07T02:00:00.325Z,0
2017-08-07T02:00:40.775Z,0
2017-08-07T02:01:21.246Z,0
2017-08-07T02:02:01.691Z,0
2017-08-07T02:02:42.187Z,0
2017-08-07T02:03:22.648Z,0
2017-08-07T02:04:03.107Z,0
2017-08-07T02:04:43.564Z,0
2017-08-07T02:05:24.004Z,0
2017-08-07T02:06:04.464Z,0
2017-08-07T02:06:44.917Z,0
2017-08-07T02:07:25.373Z,0
2017-08-07T02:08:05.828Z,0
2017-08-07T02:08:46.282Z,0
2017-08-07T02:09:26.745Z,0
2017-08-07T02:10:07.206Z,0
2017-08-07T02:10:47.661Z,0
2017-08-07T02:11:28.119Z,0
2017-08-07T02:12:08.580Z,0
2017-08-07T02:12:49.034Z,0
2017-08-07T02:13:29.492Z,0
2017-08-07T02:14:09.953Z,0
2017-08-07T02:14:50.413Z,0
2017-08-07T02:15:30.870Z,0
2017-08-07T02:16:11.351Z,0
2017-08-07T02:16:51.786Z,0
2017-08-07T02:17:32.245Z,0
2017-08-07T02:18:12.713Z,0
2017-08-07T02:18:53.172Z,0
2017-08-07T02:19:33.627Z,0
2017-08-07T02:20:14.084Z,0
2017-08-07T02:20:54.540Z,0
2017-08-07T02:21:34.994Z,0
2017-08-07T02:22:15.450Z,0
2017-08-07T02:22:55.910Z,0
2017-08-07T02:23:36.369Z,0
2017-08-07T02:24:16.820Z,0
2017-08-07T02:24:57.279Z,0
2017-08-07T02:25:37.731Z,0
2017-08-07T02:26:18.206Z,0
2017-08-07T02:26:58.668Z,0
2017-08-07T02:27:39.127Z,0
2017-08-07T02:28:19.604Z,0
2017-08-07T02:29:00.056Z,0
2017-08-07T02:29:40.517Z,0
2017-08-07T02:30:20.976Z,0
2017-08-07T02:31:01.436Z,0
2017-08-07T02:31:41.892Z,0
2017-08-07T02:32:22.393Z,0
2017-08-07T02:33:02.851Z,0
2017-08-07T02:33:43.309Z,0
2017-08-07T02:34:23.768Z,0
2017-08-07T02:35:04.228Z,0
2017-08-07T02:35:44.688Z,0
2017-08-07T02:36:25.142Z,0
2017-08-07T02:37:05.598Z,0
2017-08-07T02:37:46.050Z,0
2017-08-07T02:38:26.507Z,0
2017-08-07T02:39:06.951Z,0
2017-08-07T02:39:47.403Z,0
2017-08-07T02:40:27.865Z,0
2017-08-07T02:41:08.317Z,0
2017-08-07T02:41:48.773Z,0
2017-08-07T02:42:29.228Z,0
2017-08-07T02:43:09.684Z,0
2017-08-07T02:43:50.142Z,0
2017-08-07T02:44:30.597Z,0
2017-08-07T02:45:11.053Z,0
2017-08-07T02:45:51.506Z,0
2017-08-07T02:46:31.962Z,0
2017-08-07T02:47:12.427Z,0
2017-08-07T02:47:52.885Z,0
2017-08-07T02:48:33.354Z,0
2017-08-07T02:49:13.809Z,0
2017-08-07T02:49:54.262Z,0
2017-08-07T02:50:34.714Z,0
2017-08-07T02:51:15.175Z,0
2017-08-07T02:51:55.632Z,0
2017-08-07T02:52:36.092Z,0
2017-08-07T02:53:16.543Z,0
2017-08-07T02:53:57.025Z,0
2017-08-07T02:54:37.483Z,0
2017-08-07T02:55:17.933Z,0
2017-08-07T02:55:58.391Z,0
2017-08-07T02:56:38.845Z,0
2017-08-07T02:57:19.304Z,0
2017-08-07T02:57:59.767Z,0
2017-08-07T02:58:40.219Z,0
2017-08-07T02:59:20.673Z,0
2017-08-07T03:00:01.143Z,0
2017-08-07T03:00:41.609Z,0
2017-08-07T03:01:22.055Z,0
2017-08-07T03:02:02.516Z,0
2017-08-07T03:02:42.982Z,0
2017-08-07T03:03:23.426Z,0
2017-08-07T03:04:03.876Z,0
2017-08-07T03:04:44.329Z,0
2017-08-07T03:05:24.782Z,0
2017-08-07T03:06:05.231Z,0
2017-08-07T03:06:45.686Z,0
2017-08-07T03:07:26.143Z,0
2017-08-07T03:08:06.602Z,0
2017-08-07T03:08:47.056Z,0
2017-08-07T03:09:27.510Z,0
2017-08-07T03:10:07.969Z,0
2017-08-07T03:10:48.425Z,0
2017-08-07T03:11:28.877Z,0
2017-08-07T03:12:09.329Z,0
2017-08-07T03:12:49.790Z,0
2017-08-07T03:13:30.240Z,0
2017-08-07T03:14:10.702Z,0
2017-08-07T03:14:51.146Z,0
2017-08-07T03:15:31.599Z,0
2017-08-07T03:16:12.048Z,0
2017-08-07T03:16:52.504Z,0
2017-08-07T03:17:32.957Z,0
2017-08-07T03:18:13.425Z,0
2017-08-07T03:18:53.873Z,0
2017-08-07T03:19:34.326Z,0
2017-08-07T03:20:14.780Z,0
2017-08-07T03:20:55.246Z,0
2017-08-07T03:21:35.721Z,0
2017-08-07T03:22:16.175Z,0
2017-08-07T03:22:56.634Z,0
2017-08-07T03:23:37.087Z,0
2017-08-07T03:24:17.541Z,0
2017-08-07T03:24:58.002Z,0
2017-08-07T03:25:38.463Z,0
2017-08-07T03:26:18.915Z,0
2017-08-07T03:26:59.392Z,0
2017-08-07T03:27:39.832Z,0
2017-08-07T03:28:20.292Z,0
2017-08-07T03:29:00.744Z,0
2017-08-07T03:29:41.222Z,0
2017-08-07T03:30:21.673Z,0
2017-08-07T03:31:02.149Z,0
2017-08-07T03:31:42.601Z,0
2017-08-07T03:32:23.050Z,0
2017-08-07T03:33:03.512Z,0
2017-08-07T03:33:43.960Z,0
2017-08-07T03:34:24.419Z,0
2017-08-07T03:35:04.876Z,0
2017-08-07T03:35:45.326Z,0
2017-08-07T03:36:25.777Z,0
2017-08-07T03:37:06.215Z,0
2017-08-07T03:37:46.658Z,0
2017-08-07T03:38:27.112Z,0
2017-08-07T03:39:07.571Z,0
2017-08-07T03:39:48.207Z,0
2017-08-07T03:40:28.660Z,0
2017-08-07T03:41:09.116Z,0
2017-08-07T03:41:49.566Z,0
2017-08-07T03:42:30.019Z,0
2017-08-07T03:43:10.466Z,0
2017-08-07T03:43:50.921Z,0
2017-08-07T03:44:31.366Z,0
2017-08-07T03:45:11.823Z,0
2017-08-07T03:45:52.274Z,0
2017-08-07T03:46:32.726Z,0
2017-08-07T03:47:13.186Z,0
2017-08-07T03:47:53.629Z,0
2017-08-07T03:48:34.083Z,0
2017-08-07T03:49:14.531Z,0
2017-08-07T03:49:54.980Z,0
2017-08-07T03:50:35.430Z,0
2017-08-07T03:51:15.877Z,0
2017-08-07T03:51:56.350Z,0
2017-08-07T03:52:36.804Z,0
2017-08-07T03:53:17.260Z,0
2017-08-07T03:53:57.709Z,0
2017-08-07T03:54:38.176Z,0
2017-08-07T03:55:18.634Z,0
2017-08-07T03:55:59.085Z,0
2017-08-07T03:56:39.544Z,0
2017-08-07T03:57:19.991Z,0
2017-08-07T03:58:00.438Z,0
2017-08-07T03:58:40.889Z,0
2017-08-07T03:59:21.339Z,0
2017-08-07T04:00:01.802Z,0
2017-08-07T04:00:42.262Z,0
2017-08-07T04:01:22.710Z,0
2017-08-07T04:02:03.208Z,0
2017-08-07T04:02:43.665Z,0
2017-08-07T04:03:24.126Z,0
2017-08-07T04:04:04.568Z,0
2017-08-07T04:04:45.022Z,0
2017-08-07T04:05:25.467Z,0
2017-08-07T04:06:05.922Z,0
2017-08-07T04:06:46.374Z,0
2017-08-07T04:07:26.827Z,0
2017-08-07T04:08:07.284Z,0
2017-08-07T04:08:47.740Z,0
2017-08-07T04:09:28.194Z,0
2017-08-07T04:10:08.630Z,0
2017-08-07T04:10:49.094Z,0
2017-08-07T04:11:29.542Z,0
2017-08-07T04:12:10.021Z,0
2017-08-07T04:12:50.476Z,0
2017-08-07T04:13:30.922Z,0
2017-08-07T04:14:11.373Z,0
2017-08-07T04:14:51.835Z,0
2017-08-07T04:15:32.286Z,0
2017-08-07T04:16:12.742Z,0
2017-08-07T04:16:53.190Z,0
2017-08-07T04:17:33.641Z,0
2017-08-07T04:18:14.096Z,0
2017-08-07T04:18:54.543Z,0
2017-08-07T04:19:34.994Z,0
2017-08-07T04:20:15.447Z,0
2017-08-07T04:20:55.892Z,0
2017-08-07T04:21:36.335Z,0
2017-08-07T04:22:16.778Z,0
2017-08-07T04:22:57.228Z,0
2017-08-07T04:23:37.678Z,0
2017-08-07T04:24:18.129Z,0
2017-08-07T04:24:58.600Z,0
2017-08-07T04:25:39.055Z,0
2017-08-07T04:26:19.501Z,0
2017-08-07T04:26:59.946Z,0
2017-08-07T04:27:40.400Z,0
2017-08-07T04:28:20.847Z,0
2017-08-07T04:29:01.290Z,0
2017-08-07T04:29:41.743Z,0
2017-08-07T04:30:22.203Z,0
2017-08-07T04:31:02.660Z,0
2017-08-07T04:31:43.112Z,0
2017-08-07T04:32:23.571Z,0
2017-08-07T04:33:04.039Z,0
2017-08-07T04:33:44.484Z,0
2017-08-07T04:34:24.939Z,0
2017-08-07T04:35:05.392Z,0
2017-08-07T04:35:45.841Z,0
2017-08-07T04:36:26.293Z,0
2017-08-07T04:37:06.744Z,0
2017-08-07T04:37:47.201Z,0
2017-08-07T04:38:27.667Z,0
2017-08-07T04:39:08.117Z,0
2017-08-07T04:39:48.567Z,0
2017-08-07T04:40:29.020Z,0
2017-08-07T04:41:09.484Z,0
2017-08-07T04:41:49.942Z,0
2017-08-07T04:42:30.396Z,5
2017-08-07T04:43:10.851Z,5
2017-08-07T04:43:51.327Z,5
2017-08-07T04:44:31.873Z,5
2017-08-07T04:45:12.331Z,5
2017-08-07T04:45:52.782Z,5
2017-08-07T04:46:33.244Z,5
2017-08-07T04:47:13.698Z,5
2017-08-07T04:47:54.162Z,5
2017-08-07T04:48:34.609Z,5
2017-08-07T04:49:15.050Z,5
2017-08-07T04:49:55.503Z,5
2017-08-07T04:50:35.962Z,5
2017-08-07T04:51:16.427Z,5
2017-08-07T04:51:56.883Z,5
2017-08-07T04:52:37.339Z,5
2017-08-07T04:53:17.786Z,5
2017-08-07T04:53:58.242Z,5
2017-08-07T04:54:38.697Z,5
2017-08-07T04:55:19.144Z,5
2017-08-07T04:55:59.593Z,5
2017-08-07T04:56:40.039Z,5
2017-08-07T04:57:20.494Z,5
2017-08-07T04:58:00.945Z,5
2017-08-07T04:58:41.402Z,5
2017-08-07T04:59:21.855Z,5
2017-08-07T05:00:02.308Z,5
2017-08-07T05:00:42.762Z,5
2017-08-07T05:01:23.217Z,5
2017-08-07T05:02:03.666Z,5
2017-08-07T05:02:44.131Z,5
2017-08-07T05:03:24.585Z,5
2017-08-07T05:04:05.038Z,5
2017-08-07T05:04:45.492Z,5
2017-08-07T05:05:25.960Z,5
2017-08-07T05:06:06.418Z,5
2017-08-07T05:06:46.873Z,5
2017-08-07T05:07:27.342Z,5
2017-08-07T05:08:07.794Z,5
2017-08-07T05:08:48.255Z,5
2017-08-07T05:09:28.694Z,5
2017-08-07T05:10:09.155Z,5
2017-08-07T05:10:49.610Z,5
2017-08-07T05:11:30.061Z,5
2017-08-07T05:12:10.508Z,5
2017-08-07T05:12:50.966Z,5
2017-08-07T05:13:31.436Z,5
2017-08-07T05:14:11.890Z,5
2017-08-07T05:14:52.348Z,10
2017-08-07T05:15:32.805Z,10
2017-08-07T05:16:13.253Z,10
2017-08-07T05:16:53.719Z,10
2017-08-07T05:17:34.164Z,10
2017-08-07T05:18:14.616Z,10
2017-08-07T05:18:55.071Z,10
2017-08-07T05:19:35.527Z,10
2017-08-07T05:20:15.999Z,10
2017-08-07T05:20:56.456Z,10
2017-08-07T05:21:36.904Z,10
2017-08-07T05:22:17.381Z,10
2017-08-07T05:22:57.834Z,10
2017-08-07T05:23:38.287Z,10
2017-08-07T05:24:18.736Z,10
2017-08-07T05:24:59.189Z,10
2017-08-07T05:25:39.645Z,10
2017-08-07T05:26:20.102Z,10
2017-08-07T05:27:00.558Z,10
2017-08-07T05:27:41.013Z,10
2017-08-07T05:28:21.493Z,10
2017-08-07T05:29:01.946Z,15
2017-08-07T05:29:42.397Z,15
2017-08-07T05:30:22.852Z,15
2017-08-07T05:31:03.308Z,15
2017-08-07T05:31:43.765Z,15
2017-08-07T05:32:24.224Z,15
2017-08-07T05:33:04.676Z,15
2017-08-07T05:33:45.126Z,15
2017-08-07T05:34:25.577Z,15
2017-08-07T05:35:06.040Z,15
2017-08-07T05:35:46.497Z,15
2017-08-07T05:36:26.950Z,15
2017-08-07T05:37:07.427Z,15
2017-08-07T05:37:47.881Z,15
2017-08-07T05:38:28.336Z,15
2017-08-07T05:39:08.793Z,15
2017-08-07T05:39:49.244Z,15
2017-08-07T05:40:29.708Z,15
2017-08-07T05:41:10.156Z,15
2017-08-07T05:41:50.614Z,15
2017-08-07T05:42:31.059Z,15
2017-08-07T05:43:11.508Z,15
2017-08-07T05:43:51.966Z,15
2017-08-07T05:44:32.479Z,15
2017-08-07T05:45:12.866Z,15
2017-08-07T05:45:53.324Z,15
2017-08-07T05:46:33.781Z,20
2017-08-07T05:47:14.235Z,20
2017-08-07T05:47:54.704Z,20
2017-08-07T05:48:35.148Z,20
2017-08-07T05:49:15.606Z,20
2017-08-07T05:49:56.060Z,20
2017-08-07T05:50:36.509Z,20
2017-08-07T05:51:16.965Z,20
2017-08-07T05:51:57.418Z,20
2017-08-07T05:52:37.877Z,20
2017-08-07T05:53:18.330Z,20
2017-08-07T05:53:58.791Z,20
2017-08-07T05:54:39.243Z,20
2017-08-07T05:55:19.696Z,20
2017-08-07T05:56:00.151Z,20
2017-08-07T05:56:40.598Z,20
2017-08-07T05:57:21.056Z,20
2017-08-07T05:58:01.519Z,20
2017-08-07T05:58:41.977Z,20
2017-08-07T05:59:22.493Z,20
2017-08-07T06:00:02.959Z,20
2017-08-07T06:00:43.408Z,20
2017-08-07T06:01:23.858Z,20
2017-08-07T06:02:04.313Z,20
2017-08-07T06:02:44.837Z,20
2017-08-07T06:03:25.290Z,20
2017-08-07T06:04:05.745Z,25
2017-08-07T06:04:46.197Z,25
2017-08-07T06:05:26.658Z,25
2017-08-07T06:06:07.112Z,25
2017-08-07T06:06:47.567Z,25
2017-08-07T06:07:28.023Z,25
2017-08-07T06:08:08.479Z,25
2017-08-07T06:08:48.933Z,25
2017-08-07T06:09:29.381Z,25
2017-08-07T06:10:09.840Z,25
2017-08-07T06:10:50.294Z,25
2017-08-07T06:11:30.746Z,25
2017-08-07T06:12:11.205Z,25
2017-08-07T06:12:51.649Z,25
2017-08-07T06:13:32.102Z,25
2017-08-07T06:14:12.545Z,25
2017-08-07T06:14:53.005Z,25
2017-08-07T06:15:33.432Z,25
2017-08-07T06:16:13.890Z,25
2017-08-07T06:16:54.342Z,25
2017-08-07T06:17:34.793Z,25
2017-08-07T06:18:15.258Z,25
2017-08-07T06:18:55.720Z,25
2017-08-07T06:21:23.698Z,25
2017-08-07T06:22:04.161Z,25
2017-08-07T06:22:44.613Z,25
2017-08-07T06:23:25.062Z,25
2017-08-07T06:24:05.511Z,25
2017-08-07T06:24:45.964Z,25
2017-08-07T06:25:26.421Z,30
2017-08-07T06:26:06.867Z,30
2017-08-07T06:26:47.324Z,30
2017-08-07T06:27:27.777Z,30
2017-08-07T06:28:08.227Z,30
2017-08-07T06:28:48.689Z,30
2017-08-07T06:29:29.141Z,30
2017-08-07T06:30:09.585Z,30
2017-08-07T06:30:50.032Z,30
2017-08-07T06:31:30.486Z,30
2017-08-07T06:32:10.948Z,30
2017-08-07T06:32:51.383Z,30
2017-08-07T06:33:31.832Z,30
2017-08-07T06:34:12.285Z,30
2017-08-07T06:34:52.741Z,30
2017-08-07T06:35:33.196Z,30
2017-08-07T06:36:13.658Z,30
2017-08-07T06:36:54.109Z,30
2017-08-07T06:37:34.573Z,30
2017-08-07T06:38:15.030Z,30
2017-08-07T06:38:55.492Z,30
2017-08-07T06:39:35.943Z,30
2017-08-07T06:40:16.407Z,30
2017-08-07T06:40:57.270Z,30
2017-08-07T06:41:37.761Z,30
2017-08-07T06:42:18.206Z,30
2017-08-07T06:42:58.668Z,35
2017-08-07T06:43:39.127Z,35
2017-08-07T06:44:19.589Z,35
2017-08-07T06:45:00.041Z,35
2017-08-07T06:45:40.511Z,35
2017-08-07T06:46:20.953Z,35
2017-08-07T06:47:01.409Z,35
2017-08-07T06:47:41.862Z,35
2017-08-07T06:48:22.317Z,35
2017-08-07T06:49:02.774Z,35
2017-08-07T06:49:43.234Z,35
2017-08-07T06:50:23.686Z,35
2017-08-07T06:51:04.139Z,35
2017-08-07T06:51:44.598Z,35
2017-08-07T06:52:25.054Z,35
2017-08-07T06:53:05.508Z,35
2017-08-07T06:53:45.954Z,35
2017-08-07T06:54:26.427Z,40
2017-08-07T06:55:06.858Z,40
2017-08-07T06:55:47.325Z,40
2017-08-07T06:56:27.788Z,40
2017-08-07T06:57:08.244Z,40
2017-08-07T06:57:48.702Z,40
2017-08-07T06:58:29.157Z,40
2017-08-07T06:59:09.618Z,40
2017-08-07T06:59:50.117Z,40
2017-08-07T07:00:30.567Z,40
2017-08-07T07:01:11.024Z,40
2017-08-07T07:01:51.479Z,40
2017-08-07T07:02:31.938Z,40
2017-08-07T07:03:12.392Z,45
2017-08-07T07:03:52.847Z,45
2017-08-07T07:04:33.299Z,45
2017-08-07T07:05:13.762Z,45
2017-08-07T07:05:54.213Z,45
2017-08-07T07:06:34.662Z,45
2017-08-07T07:07:15.111Z,45
2017-08-07T07:09:53.559Z,45
2017-08-07T07:10:33.952Z,45
2017-08-07T07:11:14.428Z,45
2017-08-07T07:11:54.899Z,45
2017-08-07T07:12:35.428Z,50
2017-08-07T07:15:14.522Z,50
2017-08-07T07:15:55.110Z,50
2017-08-07T07:16:35.593Z,50
2017-08-07T07:17:16.293Z,50
2017-08-07T07:17:56.799Z,50
2017-08-07T07:18:37.253Z,50
2017-08-07T07:19:17.837Z,55
2017-08-07T07:19:58.290Z,55
2017-08-07T07:20:38.734Z,55
2017-08-07T07:21:19.187Z,55
2017-08-07T07:21:59.626Z,55
2017-08-07T07:22:40.084Z,55
2017-08-07T07:23:20.670Z,55
2017-08-07T07:24:01.314Z,55
2017-08-07T07:24:41.766Z,55
2017-08-07T07:25:22.219Z,55
2017-08-07T07:26:03.132Z,55
2017-08-07T07:26:43.421Z,55
2017-08-07T07:28:56.336Z,60
2017-08-07T07:29:36.798Z,60
2017-08-07T07:30:17.278Z,60
2017-08-07T07:30:58.221Z,60
2017-08-07T07:31:38.224Z,60
2017-08-07T07:32:18.682Z,60
2017-08-07T07:32:59.123Z,60
2017-08-07T07:33:39.549Z,60
2017-08-07T07:34:19.995Z,60
2017-08-07T07:35:00.452Z,60
2017-08-07T07:35:40.927Z,65
2017-08-07T07:36:21.318Z,65
2017-08-07T07:37:01.772Z,65
2017-08-07T07:37:42.168Z,65
2017-08-07T07:38:22.590Z,65
2017-08-07T07:39:03.195Z,65
2017-08-07T07:39:43.578Z,65
2017-08-07T07:40:24.041Z,65
2017-08-07T07:41:04.411Z,65
2017-08-07T07:41:44.882Z,65
2017-08-07T07:42:25.378Z,65
2017-08-07T07:43:05.792Z,70
2017-08-07T07:43:46.204Z,70
2017-08-07T07:44:26.623Z,70
2017-08-07T07:45:07.095Z,70
2017-08-07T07:45:47.490Z,70
2017-08-07T07:46:27.923Z,70
2017-08-07T07:47:08.355Z,70
2017-08-07T07:47:48.770Z,70
2017-08-07T07:48:29.189Z,70
2017-08-07T07:49:09.614Z,70
2017-08-07T07:49:50.057Z,70
2017-08-07T07:50:30.491Z,70
2017-08-07T07:51:10.961Z,70
2017-08-07T07:51:51.358Z,70
2017-08-07T07:52:31.742Z,75
2017-08-07T07:53:12.152Z,75
2017-08-07T07:53:52.571Z,75
2017-08-07T07:54:32.992Z,75
2017-08-07T07:55:13.396Z,75
2017-08-07T07:55:53.852Z,75
2017-08-07T07:56:34.307Z,75
2017-08-07T07:57:14.761Z,75
2017-08-07T07:59:53.035Z,75
2017-08-07T08:00:33.493Z,75
2017-08-07T08:01:13.947Z,75
2017-08-07T08:01:54.660Z,75
2017-08-07T08:02:35.094Z,75
2017-08-07T08:03:15.609Z,80
2017-08-07T08:03:56.050Z,80
2017-08-07T08:04:36.517Z,80
2017-08-07T08:05:16.969Z,80
2017-08-07T08:05:57.453Z,80
2017-08-07T08:06:37.899Z,80
2017-08-07T08:07:18.351Z,80
2017-08-07T08:07:58.810Z,80
2017-08-07T08:08:39.264Z,80
2017-08-07T08:09:19.702Z,80
2017-08-07T08:10:00.150Z,80
2017-08-07T08:10:40.609Z,80
2017-08-07T08:11:21.059Z,80
2017-08-07T08:12:01.514Z,85
2017-08-07T08:12:41.959Z,85
2017-08-07T08:13:22.415Z,85
2017-08-07T08:14:02.862Z,85
2017-08-07T08:14:43.329Z,85
2017-08-07T08:15:23.768Z,85
2017-08-07T08:16:04.289Z,85
2017-08-07T08:16:44.736Z,85
2017-08-07T08:17:25.188Z,85
2017-08-07T08:18:05.648Z,85
2017-08-07T08:18:46.157Z,85
2017-08-07T08:19:26.573Z,85
2017-08-07T08:20:07.099Z,90
2017-08-07T08:20:47.556Z,90
2017-08-07T08:21:28.010Z,90
2017-08-07T08:22:08.471Z,90
2017-08-07T08:22:49.040Z,90
2017-08-07T08:23:29.489Z,90
2017-08-07T08:24:09.948Z,90
2017-08-07T08:24:50.417Z,90
2017-08-07T08:25:30.907Z,90
2017-08-07T08:26:11.347Z,90
2017-08-07T08:26:51.803Z,90
2017-08-07T08:27:32.281Z,90
2017-08-07T08:28:13.680Z,90
2017-08-07T08:28:54.129Z,90
2017-08-07T08:29:34.581Z,95
2017-08-07T08:30:15.036Z,95
2017-08-07T08:30:55.504Z,95
2017-08-07T08:31:36.005Z,95
2017-08-07T08:32:16.430Z,95
2017-08-07T08:32:56.878Z,95
2017-08-07T08:33:37.441Z,95
2017-08-07T08:34:17.910Z,95
2017-08-07T08:34:58.355Z,95
2017-08-07T08:35:38.804Z,95
2017-08-07T08:36:19.278Z,95
2017-08-07T08:36:59.704Z,95
2017-08-07T08:37:40.156Z,95
2017-08-07T08:38:20.675Z,95
2017-08-07T08:39:01.119Z,95
2017-08-07T08:39:41.594Z,100
2017-08-07T08:40:23.012Z,100
2017-08-07T08:41:03.432Z,100
2017-08-07T08:41:43.856Z,100
2017-08-07T08:42:24.257Z,100
2017-08-07T08:43:04.662Z,100
2017-08-07T08:43:45.088Z,100
2017-08-07T08:44:25.524Z,100
2017-08-07T08:45:05.935Z,100
2017-08-07T08:45:46.371Z,100
2017-08-07T08:46:26.781Z,100
2017-08-07T08:47:07.222Z,100
2017-08-07T08:47:47.629Z,100
2017-08-07T08:48:28.075Z,100
2017-08-07T08:49:08.531Z,100
2017-08-07T08:49:48.983Z,100
2017-08-07T08:50:29.431Z,100
2017-08-07T08:51:09.886Z,100
2017-08-07T08:51:50.339Z,105
2017-08-07T08:52:30.801Z,105
2017-08-07T08:53:11.255Z,105
2017-08-07T08:53:51.869Z,105
2017-08-07T08:54:32.328Z,105
2017-08-07T08:58:58.170Z,105
2017-08-07T08:59:38.616Z,105
2017-08-07T09:00:19.950Z,105
2017-08-07T09:01:00.409Z,105
2017-08-07T09:01:40.861Z,105
2017-08-07T09:04:08.919Z,110
2017-08-07T09:04:49.370Z,110
2017-08-07T09:05:29.810Z,110
2017-08-07T09:06:10.269Z,110
2017-08-07T09:06:50.715Z,110
2017-08-07T09:07:31.167Z,110
2017-08-07T09:08:11.613Z,110
2017-08-07T09:08:52.235Z,110
2017-08-07T09:09:32.623Z,110
2017-08-07T09:10:13.079Z,110
2017-08-07T09:10:53.530Z,110
2017-08-07T09:11:33.990Z,110
2017-08-07T09:12:14.444Z,110
2017-08-07T09:12:54.893Z,110
2017-08-07T09:13:35.352Z,110
2017-08-07T09:14:15.805Z,110
2017-08-07T09:14:56.252Z,110
2017-08-07T09:15:36.708Z,110
2017-08-07T09:16:17.159Z,115
2017-08-07T09:16:57.611Z,115
2017-08-07T09:17:38.065Z,115
2017-08-07T09:18:18.512Z,115
2017-08-07T09:18:58.956Z,115
2017-08-07T09:19:39.412Z,115
2017-08-07T09:20:19.940Z,115
2017-08-07T09:21:00.388Z,115
2017-08-07T09:21:40.831Z,115
2017-08-07T09:22:21.279Z,115
2017-08-07T09:23:01.736Z,115
2017-08-07T09:23:42.260Z,115
2017-08-07T09:24:22.784Z,120
2017-08-07T09:25:03.238Z,120
2017-08-07T09:25:43.692Z,120
2017-08-07T09:26:24.131Z,120
2017-08-07T09:27:04.605Z,120
2017-08-07T09:27:45.063Z,120
2017-08-07T09:28:25.518Z,120
2017-08-07T09:29:05.976Z,120
2017-08-07T09:29:46.431Z,120
2017-08-07T09:30:26.886Z,115
2017-08-07T09:31:07.345Z,120
2017-08-07T09:31:47.794Z,110
2017-08-07T09:32:28.255Z,120
2017-08-07T09:33:08.716Z,85
2017-08-07T09:33:49.174Z,125
2017-08-07T09:34:29.625Z,125
2017-08-07T09:35:10.088Z,125
2017-08-07T09:35:50.547Z,125
2017-08-07T09:36:31.006Z,125
2017-08-07T09:37:11.463Z,120
2017-08-07T09:37:51.912Z,55
2017-08-07T09:38:32.371Z,70
2017-08-07T09:39:12.917Z,90
2017-08-07T09:39:53.373Z,75
2017-08-07T09:40:33.897Z,130
2017-08-07T09:41:14.682Z,50
2017-08-07T09:41:55.183Z,50
2017-08-07T09:42:35.631Z,70
2017-08-07T09:43:16.073Z,40
2017-08-07T09:43:56.525Z,45
2017-08-07T09:44:36.986Z,70
2017-08-07T09:45:17.436Z,55
2017-08-07T09:45:57.896Z,125
2017-08-07T09:46:38.340Z,125
2017-08-07T09:47:18.792Z,120
2017-08-07T09:48:00.294Z,120
2017-08-07T09:48:40.973Z,120
2017-08-07T09:49:21.241Z,120
2017-08-07T09:50:01.697Z,120
2017-08-07T09:50:42.152Z,120
2017-08-07T09:51:22.616Z,120
2017-08-07T09:52:03.061Z,120
2017-08-07T09:52:43.517Z,120
2017-08-07T09:53:23.969Z,120
2017-08-07T09:54:04.427Z,120
2017-08-07T09:54:44.881Z,120
2017-08-07T09:55:25.337Z,120
2017-08-07T09:56:05.788Z,120
2017-08-07T09:56:46.250Z,120
2017-08-07T09:57:26.704Z,120
2017-08-07T09:58:07.163Z,120
2017-08-07T09:58:47.616Z,120
2017-08-07T09:59:28.060Z,120
2017-08-07T10:00:08.510Z,120
2017-08-07T10:00:48.961Z,120
2017-08-07T10:01:29.426Z,120
2017-08-07T10:02:09.903Z,120